sensor_id;sensor_type;location;lat;lon;timestamp;P1;durP1;ratioP1;P2;durP2;ratioP2
19223;SDS011;9746;47.180;9.776;2022-09-09T06:28:43;0.13;;;0.13;;
19223;SDS011;9746;47.180;9.776;2022-09-09T06:31:14;0.10;;;0.10;;
19223;SDS011;9746;47.180;9.776;2022-09-09T06:33:47;0.10;;;0.10;;
19223;SDS011;9746;47.180;9.776;2022-09-09T06:36:15;0.10;;;0.10;;
19223;SDS011;9746;47.180;9.776;2022-09-09T06:38:44;0.10;;;0.10;;
19223;SDS011;9746;47.180;9.776;2022-09-09T06:41:13;0.10;;;0.10;;
19223;SDS011;9746;47.180;9.776;2022-09-09T06:43:45;0.10;;;0.10;;
19223;SDS011;9746;47.180;9.776;2022-09-09T06:46:13;0.10;;;0.10;;
19223;SDS011;9746;47.180;9.776;2022-09-09T06:48:42;0.10;;;0.10;;
19223;SDS011;9746;47.180;9.776;2022-09-09T06:51:11;0.10;;;0.10;;
19223;SDS011;9746;47.180;9.776;2022-09-09T06:53:40;0.10;;;0.10;;
19223;SDS011;9746;47.180;9.776;2022-09-09T06:56:19;0.10;;;0.10;;
19223;SDS011;9746;47.180;9.776;2022-09-09T06:58:50;0.10;;;0.10;;
19223;SDS011;9746;47.180;9.776;2022-09-09T07:01:20;0.10;;;0.10;;
19223;SDS011;9746;47.180;9.776;2022-09-09T07:03:50;0.10;;;0.10;;
19223;SDS011;9746;47.180;9.776;2022-09-09T07:06:18;0.10;;;0.10;;
19223;SDS011;9746;47.180;9.776;2022-09-09T07:08:50;0.10;;;0.10;;
19223;SDS011;9746;47.180;9.776;2022-09-09T07:11:18;0.10;;;0.10;;
19223;SDS011;9746;47.180;9.776;2022-09-09T07:13:47;0.10;;;0.10;;
19223;SDS011;9746;47.180;9.776;2022-09-09T07:16:17;0.10;;;0.10;;
19223;SDS011;9746;47.180;9.776;2022-09-09T07:18:45;0.10;;;0.10;;
19223;SDS011;9746;47.180;9.776;2022-09-09T07:21:15;0.10;;;0.10;;
19223;SDS011;9746;47.180;9.776;2022-09-09T07:23:44;0.10;;;0.10;;
19223;SDS011;9746;47.180;9.776;2022-09-09T07:26:12;0.10;;;0.10;;
19223;SDS011;9746;47.180;9.776;2022-09-09T07:28:41;0.10;;;0.10;;
19223;SDS011;9746;47.180;9.776;2022-09-09T07:33:42;0.10;;;0.10;;
19223;SDS011;9746;47.180;9.776;2022-09-09T07:36:13;0.10;;;0.10;;
19223;SDS011;9746;47.180;9.776;2022-09-09T07:38:41;0.10;;;0.10;;
19223;SDS011;9746;47.180;9.776;2022-09-09T07:41:11;0.10;;;0.10;;
19223;SDS011;9746;47.180;9.776;2022-09-09T07:43:41;0.10;;;0.10;;
19223;SDS011;9746;47.180;9.776;2022-09-09T07:46:10;0.10;;;0.10;;
19223;SDS011;9746;47.180;9.776;2022-09-09T07:48:44;0.10;;;0.10;;
19223;SDS011;9746;47.180;9.776;2022-09-09T07:51:15;0.10;;;0.10;;
19223;SDS011;9746;47.180;9.776;2022-09-09T07:53:45;0.10;;;0.10;;
19223;SDS011;9746;47.180;9.776;2022-09-09T07:56:13;0.10;;;0.10;;
19223;SDS011;9746;47.180;9.776;2022-09-09T07:58:44;0.10;;;0.10;;
19223;SDS011;9746;47.180;9.776;2022-09-09T08:01:13;0.00;;;0.00;;
19223;SDS011;9746;47.180;9.776;2022-09-09T08:03:43;0.10;;;0.10;;
19223;SDS011;9746;47.180;9.776;2022-09-09T08:06:11;0.00;;;0.00;;
19223;SDS011;9746;47.180;9.776;2022-09-09T08:08:39;0.10;;;0.10;;
19223;SDS011;9746;47.180;9.776;2022-09-09T08:11:10;0.00;;;0.00;;
19223;SDS011;9746;47.180;9.776;2022-09-09T08:13:40;0.10;;;0.10;;
19223;SDS011;9746;47.180;9.776;2022-09-09T08:16:09;0.10;;;0.10;;
19223;SDS011;9746;47.180;9.776;2022-09-09T08:18:38;0.10;;;0.10;;
19223;SDS011;9746;47.180;9.776;2022-09-09T08:21:09;0.10;;;0.10;;
19223;SDS011;9746;47.180;9.776;2022-09-09T08:23:38;0.10;;;0.10;;
19223;SDS011;9746;47.180;9.776;2022-09-09T08:26:07;0.10;;;0.10;;
19223;SDS011;9746;47.180;9.776;2022-09-09T08:28:37;0.10;;;0.10;;
19223;SDS011;9746;47.180;9.776;2022-09-09T08:31:10;0.05;;;0.05;;
19223;SDS011;9746;47.180;9.776;2022-09-09T08:33:39;0.10;;;0.10;;
19223;SDS011;9746;47.180;9.776;2022-09-09T08:36:10;0.10;;;0.10;;
19223;SDS011;9746;47.180;9.776;2022-09-09T08:38:38;0.10;;;0.10;;
19223;SDS011;9746;47.180;9.776;2022-09-09T08:41:17;0.10;;;0.10;;
19223;SDS011;9746;47.180;9.776;2022-09-09T08:44:14;0.10;;;0.10;;
19223;SDS011;9746;47.180;9.776;2022-09-09T08:46:51;0.10;;;0.10;;
19223;SDS011;9746;47.180;9.776;2022-09-09T08:49:36;0.10;;;0.10;;
19223;SDS011;9746;47.180;9.776;2022-09-09T08:52:19;0.10;;;0.10;;
19223;SDS011;9746;47.180;9.776;2022-09-09T08:54:49;0.10;;;0.10;;
19223;SDS011;9746;47.180;9.776;2022-09-09T08:57:21;0.00;;;0.00;;
19223;SDS011;9746;47.180;9.776;2022-09-09T08:59:52;0.10;;;0.10;;
19223;SDS011;9746;47.180;9.776;2022-09-09T09:02:21;0.10;;;0.10;;
19223;SDS011;9746;47.180;9.776;2022-09-09T09:05:00;0.10;;;0.10;;
19223;SDS011;9746;47.180;9.776;2022-09-09T09:07:46;0.10;;;0.10;;
19223;SDS011;9746;47.180;9.776;2022-09-09T09:10:28;0.10;;;0.10;;
19223;SDS011;9746;47.180;9.776;2022-09-09T09:13:04;0.10;;;0.10;;
19223;SDS011;9746;47.180;9.776;2022-09-09T09:15:38;0.10;;;0.10;;
19223;SDS011;9746;47.180;9.776;2022-09-09T09:18:07;0.10;;;0.10;;
19223;SDS011;9746;47.180;9.776;2022-09-09T09:20:41;0.10;;;0.10;;
19223;SDS011;9746;47.180;9.776;2022-09-09T09:23:19;0.10;;;0.10;;
19223;SDS011;9746;47.180;9.776;2022-09-09T09:25:49;0.10;;;0.10;;
19223;SDS011;9746;47.180;9.776;2022-09-09T09:28:23;0.10;;;0.10;;
19223;SDS011;9746;47.180;9.776;2022-09-09T09:30:53;0.10;;;0.10;;
19223;SDS011;9746;47.180;9.776;2022-09-09T09:33:27;0.10;;;0.10;;
19223;SDS011;9746;47.180;9.776;2022-09-09T09:36:01;0.10;;;0.10;;
19223;SDS011;9746;47.180;9.776;2022-09-09T09:38:31;0.10;;;0.10;;
19223;SDS011;9746;47.180;9.776;2022-09-09T09:40:59;0.10;;;0.10;;
19223;SDS011;9746;47.180;9.776;2022-09-09T09:43:28;0.10;;;0.10;;
19223;SDS011;9746;47.180;9.776;2022-09-09T09:45:57;0.10;;;0.10;;
19223;SDS011;9746;47.180;9.776;2022-09-09T09:48:25;0.10;;;0.10;;
19223;SDS011;9746;47.180;9.776;2022-09-09T09:50:54;0.10;;;0.10;;
19223;SDS011;9746;47.180;9.776;2022-09-09T09:53:26;0.10;;;0.10;;
19223;SDS011;9746;47.180;9.776;2022-09-09T09:55:57;0.10;;;0.10;;
19223;SDS011;9746;47.180;9.776;2022-09-09T09:58:26;0.10;;;0.10;;
19223;SDS011;9746;47.180;9.776;2022-09-09T10:00:59;0.10;;;0.10;;
19223;SDS011;9746;47.180;9.776;2022-09-09T10:03:28;0.10;;;0.10;;
19223;SDS011;9746;47.180;9.776;2022-09-09T10:05:56;0.10;;;0.10;;
19223;SDS011;9746;47.180;9.776;2022-09-09T10:08:24;0.10;;;0.10;;
19223;SDS011;9746;47.180;9.776;2022-09-09T10:10:59;0.10;;;0.10;;
19223;SDS011;9746;47.180;9.776;2022-09-09T10:13:36;0.10;;;0.10;;
19223;SDS011;9746;47.180;9.776;2022-09-09T10:16:15;0.10;;;0.10;;
19223;SDS011;9746;47.180;9.776;2022-09-09T10:18:55;0.10;;;0.10;;
19223;SDS011;9746;47.180;9.776;2022-09-09T10:21:38;0.10;;;0.10;;
19223;SDS011;9746;47.180;9.776;2022-09-09T10:27:23;0.10;;;0.10;;
19223;SDS011;9746;47.180;9.776;2022-09-09T10:30:05;0.10;;;0.10;;
19223;SDS011;9746;47.180;9.776;2022-09-09T10:32:45;0.10;;;0.10;;
19223;SDS011;9746;47.180;9.776;2022-09-09T10:35:26;0.10;;;0.10;;
19223;SDS011;9746;47.180;9.776;2022-09-09T10:40:50;0.10;;;0.10;;
19223;SDS011;9746;47.180;9.776;2022-09-09T10:43:42;0.10;;;0.10;;
19223;SDS011;9746;47.180;9.776;2022-09-09T10:46:26;0.10;;;0.10;;
19223;SDS011;9746;47.180;9.776;2022-09-09T10:49:09;0.10;;;0.10;;
19223;SDS011;9746;47.180;9.776;2022-09-09T10:51:45;0.10;;;0.10;;
19223;SDS011;9746;47.180;9.776;2022-09-09T10:54:28;0.10;;;0.10;;
19223;SDS011;9746;47.180;9.776;2022-09-09T10:57:04;0.10;;;0.10;;
19223;SDS011;9746;47.180;9.776;2022-09-09T10:59:42;0.10;;;0.10;;
19223;SDS011;9746;47.180;9.776;2022-09-09T11:02:15;0.10;;;0.10;;
19223;SDS011;9746;47.180;9.776;2022-09-09T11:04:50;0.10;;;0.10;;
19223;SDS011;9746;47.180;9.776;2022-09-09T11:07:25;0.10;;;0.10;;
19223;SDS011;9746;47.180;9.776;2022-09-09T11:09:59;0.03;;;0.03;;
19223;SDS011;9746;47.180;9.776;2022-09-09T11:12:33;0.10;;;0.10;;
19223;SDS011;9746;47.180;9.776;2022-09-09T11:15:06;0.10;;;0.10;;
19223;SDS011;9746;47.180;9.776;2022-09-09T11:17:42;0.10;;;0.10;;
19223;SDS011;9746;47.180;9.776;2022-09-09T11:20:14;0.10;;;0.10;;
19223;SDS011;9746;47.180;9.776;2022-09-09T11:22:43;0.10;;;0.10;;
19223;SDS011;9746;47.180;9.776;2022-09-09T11:25:15;0.10;;;0.10;;
19223;SDS011;9746;47.180;9.776;2022-09-09T11:27:50;0.10;;;0.10;;
19223;SDS011;9746;47.180;9.776;2022-09-09T11:30:29;0.10;;;0.10;;
19223;SDS011;9746;47.180;9.776;2022-09-09T11:33:15;0.10;;;0.10;;
19223;SDS011;9746;47.180;9.776;2022-09-09T11:36:22;0.10;;;0.10;;
19223;SDS011;9746;47.180;9.776;2022-09-09T11:39:15;0.10;;;0.10;;
19223;SDS011;9746;47.180;9.776;2022-09-09T11:42:05;0.10;;;0.10;;
19223;SDS011;9746;47.180;9.776;2022-09-09T11:44:34;0.10;;;0.10;;
19223;SDS011;9746;47.180;9.776;2022-09-09T11:47:02;0.05;;;0.05;;
19223;SDS011;9746;47.180;9.776;2022-09-09T11:49:39;0.10;;;0.10;;
19223;SDS011;9746;47.180;9.776;2022-09-09T11:52:11;0.10;;;0.10;;
19223;SDS011;9746;47.180;9.776;2022-09-09T11:54:44;0.10;;;0.10;;
19223;SDS011;9746;47.180;9.776;2022-09-09T11:57:17;0.10;;;0.10;;
19223;SDS011;9746;47.180;9.776;2022-09-09T11:59:51;0.00;;;0.00;;
19223;SDS011;9746;47.180;9.776;2022-09-09T12:02:22;0.10;;;0.10;;
19223;SDS011;9746;47.180;9.776;2022-09-09T12:04:56;0.10;;;0.10;;
19223;SDS011;9746;47.180;9.776;2022-09-09T12:07:34;0.10;;;0.10;;
19223;SDS011;9746;47.180;9.776;2022-09-09T12:10:17;0.10;;;0.10;;
19223;SDS011;9746;47.180;9.776;2022-09-09T12:12:48;0.10;;;0.10;;
19223;SDS011;9746;47.180;9.776;2022-09-09T12:15:17;0.10;;;0.10;;
19223;SDS011;9746;47.180;9.776;2022-09-09T12:17:52;0.10;;;0.10;;
19223;SDS011;9746;47.180;9.776;2022-09-09T12:20:22;0.10;;;0.10;;
19223;SDS011;9746;47.180;9.776;2022-09-09T12:23:07;0.10;;;0.10;;
19223;SDS011;9746;47.180;9.776;2022-09-09T12:25:49;0.10;;;0.10;;
19223;SDS011;9746;47.180;9.776;2022-09-09T12:28:33;0.10;;;0.10;;
19223;SDS011;9746;47.180;9.776;2022-09-09T12:31:12;0.10;;;0.10;;
19223;SDS011;9746;47.180;9.776;2022-09-09T12:33:45;0.10;;;0.10;;
19223;SDS011;9746;47.180;9.776;2022-09-09T12:36:14;0.10;;;0.10;;
19223;SDS011;9746;47.180;9.776;2022-09-09T12:38:44;0.10;;;0.10;;
19223;SDS011;9746;47.180;9.776;2022-09-09T12:41:19;0.10;;;0.10;;
19223;SDS011;9746;47.180;9.776;2022-09-09T12:43:47;0.03;;;0.03;;
19223;SDS011;9746;47.180;9.776;2022-09-09T12:46:19;0.10;;;0.10;;
19223;SDS011;9746;47.180;9.776;2022-09-09T12:48:52;0.10;;;0.10;;
19223;SDS011;9746;47.180;9.776;2022-09-09T12:51:23;0.10;;;0.10;;
19223;SDS011;9746;47.180;9.776;2022-09-09T12:53:52;0.10;;;0.10;;
19223;SDS011;9746;47.180;9.776;2022-09-09T12:56:21;0.10;;;0.10;;
19223;SDS011;9746;47.180;9.776;2022-09-09T12:58:52;0.10;;;0.10;;
19223;SDS011;9746;47.180;9.776;2022-09-09T13:01:21;0.10;;;0.10;;
19223;SDS011;9746;47.180;9.776;2022-09-09T13:03:51;0.00;;;0.00;;
19223;SDS011;9746;47.180;9.776;2022-09-09T13:06:22;0.10;;;0.10;;
19223;SDS011;9746;47.180;9.776;2022-09-09T13:08:51;0.10;;;0.10;;
19223;SDS011;9746;47.180;9.776;2022-09-09T13:11:20;0.10;;;0.10;;
19223;SDS011;9746;47.180;9.776;2022-09-09T13:13:51;0.10;;;0.10;;
19223;SDS011;9746;47.180;9.776;2022-09-09T13:16:23;0.10;;;0.10;;
19223;SDS011;9746;47.180;9.776;2022-09-09T13:18:58;0.10;;;0.10;;
19223;SDS011;9746;47.180;9.776;2022-09-09T13:21:31;0.10;;;0.10;;
19223;SDS011;9746;47.180;9.776;2022-09-09T13:24:00;0.10;;;0.10;;
19223;SDS011;9746;47.180;9.776;2022-09-09T13:26:29;0.10;;;0.10;;
19223;SDS011;9746;47.180;9.776;2022-09-09T13:29:07;0.10;;;0.10;;
19223;SDS011;9746;47.180;9.776;2022-09-09T13:31:44;0.08;;;0.08;;
19223;SDS011;9746;47.180;9.776;2022-09-09T13:34:14;0.00;;;0.00;;
19223;SDS011;9746;47.180;9.776;2022-09-09T13:36:54;0.00;;;0.00;;
19223;SDS011;9746;47.180;9.776;2022-09-09T13:39:28;0.10;;;0.10;;
19223;SDS011;9746;47.180;9.776;2022-09-09T13:41:56;0.00;;;0.00;;
19223;SDS011;9746;47.180;9.776;2022-09-09T13:44:24;0.10;;;0.10;;
19223;SDS011;9746;47.180;9.776;2022-09-09T13:47:00;0.10;;;0.10;;
19223;SDS011;9746;47.180;9.776;2022-09-09T13:49:36;0.10;;;0.10;;
19223;SDS011;9746;47.180;9.776;2022-09-09T13:52:08;0.10;;;0.10;;
19223;SDS011;9746;47.180;9.776;2022-09-09T13:54:38;0.00;;;0.00;;
19223;SDS011;9746;47.180;9.776;2022-09-09T13:57:13;0.10;;;0.10;;
19223;SDS011;9746;47.180;9.776;2022-09-09T13:59:43;0.00;;;0.00;;
19223;SDS011;9746;47.180;9.776;2022-09-09T14:02:11;0.10;;;0.10;;
19223;SDS011;9746;47.180;9.776;2022-09-09T14:04:41;0.10;;;0.10;;
19223;SDS011;9746;47.180;9.776;2022-09-09T14:07:11;0.00;;;0.00;;
19223;SDS011;9746;47.180;9.776;2022-09-09T14:09:40;0.00;;;0.00;;
19223;SDS011;9746;47.180;9.776;2022-09-09T14:12:09;0.00;;;0.00;;
19223;SDS011;9746;47.180;9.776;2022-09-09T14:14:37;0.00;;;0.00;;
19223;SDS011;9746;47.180;9.776;2022-09-09T14:17:04;0.00;;;0.00;;
19223;SDS011;9746;47.180;9.776;2022-09-09T14:19:31;0.00;;;0.00;;
19223;SDS011;9746;47.180;9.776;2022-09-09T14:22:00;0.00;;;0.00;;
19223;SDS011;9746;47.180;9.776;2022-09-09T14:24:28;0.00;;;0.00;;
19223;SDS011;9746;47.180;9.776;2022-09-09T14:26:56;0.00;;;0.00;;
19223;SDS011;9746;47.180;9.776;2022-09-09T14:29:23;0.00;;;0.00;;
19223;SDS011;9746;47.180;9.776;2022-09-09T14:31:52;0.00;;;0.00;;
19223;SDS011;9746;47.180;9.776;2022-09-09T14:34:20;0.00;;;0.00;;
19223;SDS011;9746;47.180;9.776;2022-09-09T14:36:48;0.00;;;0.00;;
19223;SDS011;9746;47.180;9.776;2022-09-09T14:39:18;0.00;;;0.00;;
19223;SDS011;9746;47.180;9.776;2022-09-09T14:41:45;0.00;;;0.00;;
19223;SDS011;9746;47.180;9.776;2022-09-09T14:44:12;0.08;;;0.08;;
19223;SDS011;9746;47.180;9.776;2022-09-09T14:46:41;0.00;;;0.00;;
19223;SDS011;9746;47.180;9.776;2022-09-09T14:49:09;0.00;;;0.00;;
19223;SDS011;9746;47.180;9.776;2022-09-09T14:51:37;0.00;;;0.00;;
19223;SDS011;9746;47.180;9.776;2022-09-09T14:54:05;0.10;;;0.10;;
19223;SDS011;9746;47.180;9.776;2022-09-09T14:56:34;0.08;;;0.08;;
19223;SDS011;9746;47.180;9.776;2022-09-09T14:59:01;0.10;;;0.10;;
19223;SDS011;9746;47.180;9.776;2022-09-09T15:01:29;0.10;;;0.10;;
19223;SDS011;9746;47.180;9.776;2022-09-09T15:03:58;0.10;;;0.10;;
19223;SDS011;9746;47.180;9.776;2022-09-09T15:06:28;0.10;;;0.10;;
19223;SDS011;9746;47.180;9.776;2022-09-09T15:08:58;0.08;;;0.08;;
19223;SDS011;9746;47.180;9.776;2022-09-09T15:11:26;0.10;;;0.10;;
19223;SDS011;9746;47.180;9.776;2022-09-09T15:13:57;0.10;;;0.10;;
19223;SDS011;9746;47.180;9.776;2022-09-09T15:16:25;0.10;;;0.10;;
19223;SDS011;9746;47.180;9.776;2022-09-09T15:18:54;0.10;;;0.10;;
19223;SDS011;9746;47.180;9.776;2022-09-09T15:21:23;0.08;;;0.08;;
19223;SDS011;9746;47.180;9.776;2022-09-09T15:23:52;0.10;;;0.10;;
19223;SDS011;9746;47.180;9.776;2022-09-09T15:26:20;0.10;;;0.10;;
19223;SDS011;9746;47.180;9.776;2022-09-09T15:28:48;0.10;;;0.10;;
19223;SDS011;9746;47.180;9.776;2022-09-09T15:31:19;0.00;;;0.00;;
19223;SDS011;9746;47.180;9.776;2022-09-09T15:33:47;0.10;;;0.10;;
19223;SDS011;9746;47.180;9.776;2022-09-09T15:36:15;0.10;;;0.10;;
19223;SDS011;9746;47.180;9.776;2022-09-09T15:38:44;0.10;;;0.10;;
19223;SDS011;9746;47.180;9.776;2022-09-09T15:41:12;0.10;;;0.10;;
19223;SDS011;9746;47.180;9.776;2022-09-09T15:43:42;0.10;;;0.10;;
19223;SDS011;9746;47.180;9.776;2022-09-09T15:49:03;0.08;;;0.08;;
19223;SDS011;9746;47.180;9.776;2022-09-09T15:51:32;0.10;;;0.10;;
19223;SDS011;9746;47.180;9.776;2022-09-09T15:54:00;0.10;;;0.10;;
19223;SDS011;9746;47.180;9.776;2022-09-09T15:56:29;0.10;;;0.10;;
19223;SDS011;9746;47.180;9.776;2022-09-09T15:58:57;0.10;;;0.10;;
19223;SDS011;9746;47.180;9.776;2022-09-09T16:01:26;0.10;;;0.10;;
19223;SDS011;9746;47.180;9.776;2022-09-09T16:03:56;0.10;;;0.10;;
19223;SDS011;9746;47.180;9.776;2022-09-09T16:06:25;0.10;;;0.10;;
19223;SDS011;9746;47.180;9.776;2022-09-09T16:08:54;0.10;;;0.10;;
19223;SDS011;9746;47.180;9.776;2022-09-09T16:11:25;0.10;;;0.10;;
19223;SDS011;9746;47.180;9.776;2022-09-09T16:13:54;0.10;;;0.10;;
19223;SDS011;9746;47.180;9.776;2022-09-09T16:16:22;0.10;;;0.10;;
19223;SDS011;9746;47.180;9.776;2022-09-09T16:18:53;0.08;;;0.08;;
19223;SDS011;9746;47.180;9.776;2022-09-09T16:21:24;0.10;;;0.10;;
19223;SDS011;9746;47.180;9.776;2022-09-09T16:23:54;0.10;;;0.10;;
19223;SDS011;9746;47.180;9.776;2022-09-09T16:26:24;0.10;;;0.10;;
19223;SDS011;9746;47.180;9.776;2022-09-09T16:28:56;0.10;;;0.10;;
19223;SDS011;9746;47.180;9.776;2022-09-09T16:31:25;0.10;;;0.10;;
19223;SDS011;9746;47.180;9.776;2022-09-09T16:33:53;0.10;;;0.10;;
19223;SDS011;9746;47.180;9.776;2022-09-09T16:36:21;0.10;;;0.10;;
19223;SDS011;9746;47.180;9.776;2022-09-09T16:38:51;0.10;;;0.10;;
19223;SDS011;9746;47.180;9.776;2022-09-09T16:41:20;0.10;;;0.10;;
19223;SDS011;9746;47.180;9.776;2022-09-09T16:43:51;0.10;;;0.10;;
19223;SDS011;9746;47.180;9.776;2022-09-09T16:46:21;0.10;;;0.10;;
19223;SDS011;9746;47.180;9.776;2022-09-09T16:48:49;0.10;;;0.10;;
19223;SDS011;9746;47.180;9.776;2022-09-09T16:51:18;0.10;;;0.10;;
19223;SDS011;9746;47.180;9.776;2022-09-09T16:53:50;0.10;;;0.10;;
19223;SDS011;9746;47.180;9.776;2022-09-09T16:56:18;0.10;;;0.10;;
19223;SDS011;9746;47.180;9.776;2022-09-09T16:58:49;0.10;;;0.10;;
19223;SDS011;9746;47.180;9.776;2022-09-09T17:01:17;0.10;;;0.10;;
19223;SDS011;9746;47.180;9.776;2022-09-09T17:03:45;0.10;;;0.10;;
19223;SDS011;9746;47.180;9.776;2022-09-09T17:06:13;0.10;;;0.10;;
19223;SDS011;9746;47.180;9.776;2022-09-09T17:08:42;0.08;;;0.08;;
19223;SDS011;9746;47.180;9.776;2022-09-09T17:11:15;0.10;;;0.10;;
19223;SDS011;9746;47.180;9.776;2022-09-09T17:13:44;0.10;;;0.10;;
19223;SDS011;9746;47.180;9.776;2022-09-09T17:16:12;0.10;;;0.10;;
19223;SDS011;9746;47.180;9.776;2022-09-09T17:18:42;0.13;;;0.13;;
19223;SDS011;9746;47.180;9.776;2022-09-09T17:21:11;0.10;;;0.10;;
19223;SDS011;9746;47.180;9.776;2022-09-09T17:23:40;0.10;;;0.10;;
19223;SDS011;9746;47.180;9.776;2022-09-09T17:26:10;0.10;;;0.10;;
19223;SDS011;9746;47.180;9.776;2022-09-09T17:28:41;0.10;;;0.10;;
19223;SDS011;9746;47.180;9.776;2022-09-09T17:31:11;0.10;;;0.10;;
19223;SDS011;9746;47.180;9.776;2022-09-09T17:33:41;0.10;;;0.10;;
19223;SDS011;9746;47.180;9.776;2022-09-09T17:36:12;0.20;;;0.20;;
19223;SDS011;9746;47.180;9.776;2022-09-09T17:38:41;0.10;;;0.10;;
19223;SDS011;9746;47.180;9.776;2022-09-09T17:41:10;0.10;;;0.10;;
19223;SDS011;9746;47.180;9.776;2022-09-09T17:43:40;0.10;;;0.10;;
19223;SDS011;9746;47.180;9.776;2022-09-09T17:46:09;0.10;;;0.10;;
19223;SDS011;9746;47.180;9.776;2022-09-09T17:48:37;0.10;;;0.10;;
19223;SDS011;9746;47.180;9.776;2022-09-09T17:51:06;0.10;;;0.10;;
19223;SDS011;9746;47.180;9.776;2022-09-09T17:53:36;0.10;;;0.10;;
19223;SDS011;9746;47.180;9.776;2022-09-09T17:56:05;0.10;;;0.10;;
19223;SDS011;9746;47.180;9.776;2022-09-09T17:58:33;0.20;;;0.20;;
19223;SDS011;9746;47.180;9.776;2022-09-09T18:01:03;0.10;;;0.10;;
19223;SDS011;9746;47.180;9.776;2022-09-09T18:03:33;0.10;;;0.10;;
19223;SDS011;9746;47.180;9.776;2022-09-09T18:06:02;0.20;;;0.20;;
19223;SDS011;9746;47.180;9.776;2022-09-09T18:08:31;0.20;;;0.20;;
19223;SDS011;9746;47.180;9.776;2022-09-09T18:10:59;0.20;;;0.20;;
19223;SDS011;9746;47.180;9.776;2022-09-09T18:13:27;0.20;;;0.20;;
19223;SDS011;9746;47.180;9.776;2022-09-09T18:15:55;0.13;;;0.13;;
19223;SDS011;9746;47.180;9.776;2022-09-09T18:18:25;0.20;;;0.20;;
19223;SDS011;9746;47.180;9.776;2022-09-09T18:20:56;0.15;;;0.15;;
19223;SDS011;9746;47.180;9.776;2022-09-09T18:23:27;0.20;;;0.20;;
19223;SDS011;9746;47.180;9.776;2022-09-09T18:25:55;0.10;;;0.10;;
19223;SDS011;9746;47.180;9.776;2022-09-09T18:28:24;0.10;;;0.10;;
19223;SDS011;9746;47.180;9.776;2022-09-09T18:30:54;0.20;;;0.20;;
19223;SDS011;9746;47.180;9.776;2022-09-09T18:33:21;0.20;;;0.20;;
19223;SDS011;9746;47.180;9.776;2022-09-09T18:35:50;0.20;;;0.20;;
19223;SDS011;9746;47.180;9.776;2022-09-09T18:38:17;0.20;;;0.20;;
19223;SDS011;9746;47.180;9.776;2022-09-09T18:40:45;0.20;;;0.20;;
19223;SDS011;9746;47.180;9.776;2022-09-09T18:43:12;0.20;;;0.20;;
19223;SDS011;9746;47.180;9.776;2022-09-09T18:45:40;0.15;;;0.15;;
19223;SDS011;9746;47.180;9.776;2022-09-09T18:48:08;0.10;;;0.10;;
19223;SDS011;9746;47.180;9.776;2022-09-09T18:50:36;0.10;;;0.10;;
19223;SDS011;9746;47.180;9.776;2022-09-09T18:53:05;0.20;;;0.20;;
19223;SDS011;9746;47.180;9.776;2022-09-09T18:55:33;0.10;;;0.10;;
19223;SDS011;9746;47.180;9.776;2022-09-09T18:58:02;0.20;;;0.20;;
19223;SDS011;9746;47.180;9.776;2022-09-09T19:00:29;0.20;;;0.20;;
19223;SDS011;9746;47.180;9.776;2022-09-09T19:02:57;0.20;;;0.20;;
19223;SDS011;9746;47.180;9.776;2022-09-09T19:05:25;0.10;;;0.10;;
19223;SDS011;9746;47.180;9.776;2022-09-09T19:07:52;0.20;;;0.20;;
19223;SDS011;9746;47.180;9.776;2022-09-09T19:10:21;0.10;;;0.10;;
19223;SDS011;9746;47.180;9.776;2022-09-09T19:12:49;0.20;;;0.20;;
19223;SDS011;9746;47.180;9.776;2022-09-09T19:15:16;0.20;;;0.20;;
19223;SDS011;9746;47.180;9.776;2022-09-09T19:17:44;0.20;;;0.20;;
19223;SDS011;9746;47.180;9.776;2022-09-09T19:20:11;0.20;;;0.20;;
19223;SDS011;9746;47.180;9.776;2022-09-09T19:22:40;0.20;;;0.20;;
19223;SDS011;9746;47.180;9.776;2022-09-09T19:25:08;0.20;;;0.20;;
19223;SDS011;9746;47.180;9.776;2022-09-09T19:27:37;0.20;;;0.20;;
19223;SDS011;9746;47.180;9.776;2022-09-09T19:30:05;0.20;;;0.20;;
19223;SDS011;9746;47.180;9.776;2022-09-09T19:32:34;0.20;;;0.20;;
19223;SDS011;9746;47.180;9.776;2022-09-09T19:35:02;0.20;;;0.20;;
19223;SDS011;9746;47.180;9.776;2022-09-09T19:37:30;0.20;;;0.20;;
19223;SDS011;9746;47.180;9.776;2022-09-09T19:39:58;0.10;;;0.10;;
19223;SDS011;9746;47.180;9.776;2022-09-09T19:42:25;0.10;;;0.10;;
19223;SDS011;9746;47.180;9.776;2022-09-09T19:44:55;0.20;;;0.20;;
19223;SDS011;9746;47.180;9.776;2022-09-09T19:47:26;0.20;;;0.20;;
19223;SDS011;9746;47.180;9.776;2022-09-09T19:49:53;0.20;;;0.20;;
19223;SDS011;9746;47.180;9.776;2022-09-09T19:52:20;0.20;;;0.20;;
19223;SDS011;9746;47.180;9.776;2022-09-09T19:54:48;0.13;;;0.13;;
19223;SDS011;9746;47.180;9.776;2022-09-09T19:57:15;0.20;;;0.20;;
19223;SDS011;9746;47.180;9.776;2022-09-09T19:59:43;0.20;;;0.20;;
19223;SDS011;9746;47.180;9.776;2022-09-09T20:02:13;0.10;;;0.10;;
19223;SDS011;9746;47.180;9.776;2022-09-09T20:04:40;0.10;;;0.10;;
19223;SDS011;9746;47.180;9.776;2022-09-09T20:07:09;0.10;;;0.10;;
19223;SDS011;9746;47.180;9.776;2022-09-09T20:09:36;0.10;;;0.10;;
19223;SDS011;9746;47.180;9.776;2022-09-09T20:12:04;0.10;;;0.10;;
19223;SDS011;9746;47.180;9.776;2022-09-09T20:14:32;0.10;;;0.10;;
19223;SDS011;9746;47.180;9.776;2022-09-09T20:16:59;0.20;;;0.20;;
19223;SDS011;9746;47.180;9.776;2022-09-09T20:19:28;0.10;;;0.10;;
19223;SDS011;9746;47.180;9.776;2022-09-09T20:21:57;0.20;;;0.20;;
19223;SDS011;9746;47.180;9.776;2022-09-09T20:24:24;0.13;;;0.13;;
19223;SDS011;9746;47.180;9.776;2022-09-09T20:26:52;0.20;;;0.20;;
19223;SDS011;9746;47.180;9.776;2022-09-09T20:29:20;0.20;;;0.20;;
19223;SDS011;9746;47.180;9.776;2022-09-09T20:31:50;0.20;;;0.20;;
19223;SDS011;9746;47.180;9.776;2022-09-09T20:34:18;0.20;;;0.20;;
